Flight Track Log - Related Links

Times and Time Zones

All times are in EDT time to prevent confusion due to time zone crossing. See the SWA662 flight status page for this flight to view local times or setup timezone preferences in your user account.

Time Position Orientation Groundspeed Altitude Reporting Facility
EDT Latitude Longitude Course Direction KTS MPH feet Rate Location/Type
Wed 11:11:46 PM 33.9472 -118.4472 264° West 167 192 1,700  Level Los Angeles Center
Wed 11:12:48 PM 33.9411 -118.5192 264° West 233 268 4,300 3,000 Climbing Los Angeles Center
Wed 11:13:50 PM 33.9114 -118.6022 247° West 253 291 7,900 3,171 Climbing Los Angeles Center
Wed 11:14:51 PM 33.8547 -118.6325 204° Southwest 270 311 10,800 2,195 Climbing Los Angeles Center
Wed 11:15:53 PM 33.8264 -118.5433 111° Southeast 320 368 12,400 2,274 Climbing Los Angeles Center
Wed 11:16:55 PM 33.8461 -118.4392 77° East 338 389 15,500 3,171 Climbing Los Angeles Center
Wed 11:17:56 PM 33.9236 -118.3789 33° Northeast 342 394 18,900 2,780 Climbing Los Angeles Center
Wed 11:18:58 PM 33.9800 -118.2811 55° Northeast 351 404 21,200 2,516 Climbing Los Angeles Center
Wed 11:20:00 PM 34.0536 -118.1575 54° Northeast 372 428 24,100 2,274 Climbing Los Angeles Center
Wed 11:21:02 PM 34.1164 -118.0506 55° Northeast 384 442 25,900 1,512 Climbing Los Angeles Center
Wed 11:22:03 PM 34.1839 -117.9353 55° Northeast 409 471 27,200 1,317 Climbing Los Angeles Center
Wed 11:23:05 PM 34.2578 -117.8097 55° Northeast 447 514 28,600 1,463 Climbing Los Angeles Center
Wed 11:24:06 PM 34.3328 -117.6792 55° Northeast 465 535 30,200 1,707 Climbing Los Angeles Center
Wed 11:25:08 PM 34.4122 -117.5411 55° Northeast 473 544 32,100 1,790 Climbing Los Angeles Center
Wed 11:26:10 PM 34.4875 -117.4097 55° Northeast 478 550 33,900 1,463 Climbing Los Angeles Center
Wed 11:27:11 PM 34.5628 -117.2797 55° Northeast 475 547 35,100 1,171 Climbing Los Angeles Center
Wed 11:28:13 PM 34.6378 -117.1464 56° Northeast 480 552 36,300 927 Climbing Los Angeles Center
Wed 11:29:14 PM 34.7142 -117.0133 55° Northeast 482 555 37,000 341 Climbing Los Angeles Center
Wed 11:30:16 PM 34.8047 -116.8514 56° Northeast 486 559 37,000  Level Los Angeles Center
Wed 11:31:18 PM 34.8794 -116.7178 56° Northeast 481 554 37,000  Level Los Angeles Center
Wed 11:32:19 PM 34.9550 -116.5850 55° Northeast 480 552 37,000  Level Los Angeles Center
Wed 11:33:21 PM 35.0481 -116.4683 46° Northeast 481 554 37,000  Level Los Angeles Center
Wed 11:34:23 PM 35.1406 -116.3542 45° Northeast 479 551 37,000  Level Los Angeles Center
Wed 11:35:24 PM 35.2306 -116.2394 46° Northeast 474 545 37,000  Level Los Angeles Center
Wed 11:36:26 PM 35.3397 -116.1011 46° Northeast 473 544 37,000  Level Los Angeles Center
Wed 11:37:27 PM 35.4319 -115.9828 46° Northeast 480 552 37,000  Level Los Angeles Center
Wed 11:38:29 PM 35.5214 -115.8764 44° Northeast 478 550 37,000  Level Los Angeles Center
Wed 11:39:30 PM 35.6072 -115.7503 50° Northeast 478 550 37,000  Level Los Angeles Center
Wed 11:40:32 PM 35.6792 -115.5694 64° Northeast 490 564 37,000  Level Los Angeles Center
Wed 11:41:34 PM 35.7386 -115.4217 64° Northeast 487 560 37,000  Level Los Angeles Center
Wed 11:42:35 PM 35.7969 -115.2711 64° Northeast 490 564 37,000  Level Los Angeles Center
Wed 11:43:37 PM 35.8522 -115.1239 65° Northeast 480 552 37,000  Level Los Angeles Center
Wed 11:44:51 PM 35.9214 -114.9450 64° Northeast 485 558 37,000  Level Los Angeles Center
Wed 11:45:53 PM 35.9789 -114.7961 64° Northeast 484 557 37,000  Level Los Angeles Center
Wed 11:46:55 PM 36.0481 -114.6183 64° Northeast 483 556 37,000  Level Los Angeles Center
Wed 11:47:56 PM 36.1044 -114.4703 65° Northeast 480 552 37,000  Level Los Angeles Center
Wed 11:49:10 PM 36.1725 -114.2914 65° Northeast 481 554 37,000  Level Los Angeles Center
Wed 11:50:12 PM 36.2289 -114.1411 65° Northeast 482 555 37,000  Level Los Angeles Center
Wed 11:51:14 PM 36.2847 -113.9906 65° Northeast 482 555 37,000  Level Los Angeles Center
Wed 11:52:16 PM 36.3414 -113.8400 65° Northeast 482 555 37,000  Level Los Angeles Center
Wed 11:53:17 PM 36.3983 -113.6892 65° Northeast 484 557 37,000  Level Los Angeles Center
Wed 11:54:19 PM 36.4639 -113.5100 65° Northeast 479 551 37,000  Level Los Angeles Center
Wed 11:55:21 PM 36.5200 -113.3578 65° Northeast 478 550 37,000  Level Los Angeles Center
Wed 11:56:22 PM 36.5744 -113.2097 65° Northeast 475 547 37,000  Level Los Angeles Center
Wed 11:57:24 PM 36.6292 -113.0625 65° Northeast 472 543 37,000  Level Los Angeles Center
Wed 11:58:25 PM 36.6819 -112.9139 66° East 472 543 37,000  Level Los Angeles Center
Wed 11:59:27 PM 36.7364 -112.7672 65° Northeast 471 542 37,000  Level Los Angeles Center
Thu 12:00:29 AM 36.7886 -112.6208 66° East 469 540 37,000  Level Los Angeles Center
Thu 12:01:30 AM 36.8514 -112.4478 66° East 464 534 37,000  Level Los Angeles Center
Thu 12:02:32 AM 36.9039 -112.3028 66° East 461 531 37,000  Level Los Angeles Center
Thu 12:03:34 AM 36.9553 -112.1578 66° East 461 531 37,000  Level Los Angeles Center
Thu 12:04:35 AM 37.0072 -112.0131 66° East 460 529 37,000  Level Los Angeles Center
Thu 12:05:37 AM 37.0594 -111.8656 66° East 463 533 37,000  Level Los Angeles Center
Thu 12:06:38 AM 37.1106 -111.7189 66° East 463 533 37,000  Level Los Angeles Center
Thu 12:07:24 AM 37.1528 -111.6006 66° East 462 532 37,000  Level Denver Center
Thu 12:08:25 AM 37.2014 -111.4553 67° East 457 526 37,000  Level Denver Center
Thu 12:09:27 AM 37.2519 -111.3083 67° East 462 532 37,000  Level Denver Center
Thu 12:10:28 AM 37.3117 -111.1325 67° East 458 527 37,000  Level Denver Center
Thu 12:11:29 AM 37.3619 -110.9872 66° East 455 524 37,000  Level Denver Center
Thu 12:12:30 AM 37.4108 -110.8419 67° East 452 520 37,000  Level Denver Center
Thu 12:13:31 AM 37.4600 -110.6967 67° East 452 520 37,000  Level Denver Center
Thu 12:14:32 AM 37.5089 -110.5514 67° East 452 520 37,000  Level Denver Center
Thu 12:15:34 AM 37.5589 -110.4033 67° East 449 517 37,000  Level Denver Center
Thu 12:16:35 AM 37.6047 -110.2628 68° East 452 520 37,000  Level Denver Center
Thu 12:17:36 AM 37.6594 -110.0986 67° East 454 522 37,000  Level Denver Center
Thu 12:18:37 AM 37.7067 -109.9575 67° East 456 525 37,000  Level Denver Center
Thu 12:19:38 AM 37.7519 -109.8158 68° East 454 522 37,000  Level Denver Center
Thu 12:20:39 AM 37.8069 -109.6494 67° East 459 528 37,000  Level Denver Center
Thu 12:21:40 AM 37.8628 -109.5119 63° Northeast 460 529 37,000  Level Denver Center
Thu 12:22:42 AM 37.9283 -109.3542 62° Northeast 455 524 37,000  Level Denver Center
Thu 12:23:43 AM 37.9828 -109.2161 63° Northeast 457 526 37,000  Level Denver Center
Thu 12:24:44 AM 38.0383 -109.0783 63° Northeast 457 526 37,000  Level Denver Center
Thu 12:25:45 AM 38.0986 -108.9256 63° Northeast 460 529 37,000  Level Denver Center
Thu 12:27:00 AM 38.1578 -108.7545 66° East  Level FlightAware Approximate
Thu 12:27:47 AM 38.2158 -108.6286 66° East 453 521 37,000  Level Denver Center
Thu 12:28:48 AM 38.2697 -108.4928 63° Northeast 452 520 37,000  Level Denver Center
Thu 12:29:49 AM 38.3328 -108.3339 63° Northeast 452 520 37,000  Level Denver Center
Thu 12:30:50 AM 38.3861 -108.1978 63° Northeast 449 517 37,000  Level Denver Center
Thu 12:31:51 AM 38.4392 -108.0592 64° Northeast 454 522 37,000  Level Denver Center
Thu 12:32:52 AM 38.5008 -107.8994 64° Northeast 452 520 37,000  Level Denver Center
Thu 12:33:53 AM 38.5533 -107.7633 64° Northeast 449 517 37,000  Level Denver Center
Thu 12:34:54 AM 38.6047 -107.6275 64° Northeast 445 512 37,000 -344 Level Denver Center
Thu 12:35:55 AM 38.6658 -107.4672 64° Northeast 446 513 36,300 -787 Descending Denver Center
Thu 12:36:56 AM 38.7189 -107.3289 64° Northeast 452 520 35,400 -942 Descending Denver Center
Thu 12:37:56 AM 38.7781 -107.1708 64° Northeast 459 528 34,400 -992 Descending Denver Center
Thu 12:38:57 AM 38.8339 -107.0222 64° Northeast 464 534 33,400 -689 Descending Denver Center
Thu 12:39:58 AM 38.8867 -106.8786 65° Northeast 463 533 33,000 -197 Descending Denver Center
Thu 12:40:59 AM 38.9503 -106.7103 64° Northeast 469 540 33,000  Level Denver Center
Thu 12:42:00 AM 39.0025 -106.5672 65° Northeast 464 534 33,000  Level Denver Center
Thu 12:43:01 AM 39.0547 -106.4239 65° Northeast 463 533 33,000 -50 Level Denver Center
Thu 12:44:01 AM 39.1158 -106.2564 65° Northeast 464 534 32,900 -1,173 Descending Denver Center
Thu 12:45:14 AM 39.1642 -106.1219 65° Northeast 462 532 30,400 -2,418 Descending Denver Center
Thu 12:46:15 AM 39.2275 -105.9469 65° Northeast 451 519 27,500 -2,311 Descending Denver Center
Thu 12:47:16 AM 39.2783 -105.8072 65° Northeast 435 501 25,700 -2,410 Descending Denver Center
Thu 12:48:17 AM 39.3286 -105.6644 65° Northeast 437 503 22,600 -2,826 Descending Denver Center
Thu 12:49:17 AM 39.3789 -105.5264 65° Northeast 427 491 20,000 -2,231 Descending Denver Center
Thu 12:50:18 AM 39.4464 -105.4244 49° Northeast 403 464 18,100 -2,066 Descending Denver Center
Thu 12:51:19 AM 39.5392 -105.2997 46° Northeast 392 451 15,800 -2,033 Descending Denver Center
Thu 12:52:19 AM 39.6111 -105.1975 48° Northeast 385 443 14,000 -1,339 Descending Denver Center
Thu 12:53:20 AM 39.6833 -105.0989 46° Northeast 378 435 13,100 -1,918 Descending Denver Center
Thu 12:54:21 AM 39.7531 -105.0022 47° Northeast 368 423 10,100 -1,537 Descending Denver Center
Thu 12:55:21 AM 39.8175 -104.9181 45° Northeast 316 364 10,000 -99 Descending Denver Center
Thu 12:56:22 AM 39.8814 -104.8572 36° Northeast 255 293 9,900 -446 Descending Denver Center
Thu 12:57:22 AM 39.9328 -104.8078 36° Northeast 230 265 9,100 -942 Descending Denver Center
Thu 12:58:23 AM 39.9778 -104.7586 40° Northeast 211 243 8,000 -984 Descending Denver Center
Thu 12:59:24 AM 39.9786 -104.6983 89° East 164 189 7,100 -942 Descending Denver Center
Thu 01:00:24 AM 39.9400 -104.6861 166° South 152 175 6,100 -843 Descending Denver Center
Thu 01:01:25 AM 39.8983 -104.6867 181° South 150 173 5,400 -689 Descending Denver Center
Thu 01:03:00 AM 39.8617 -104.6732 180° South  Level Estimated
Thu 01:10:00 AM 39.8617 -104.6732 180° South  Level Estimated
Thu 01:11:00 AM 39.8617 -104.6732 180° South  Level Estimated

Login

Don't have an account? Register now (free) for customized features, flight alerts, and more!